Create Custom Reports and Graphics: Custom Report

Kelseyville-South

Current Conditions

9/26/20 7:15 AM (-07:00)
Updated Every 15 Minutes
Temp 50.9 °F   4.6
RH 88 %   1
Dew Pt 47.7 °F   4.1
Wind Spd 0.0 mph   0.0
Wind Dir N | 0 °
Wind Gust 0.0 mph   0.0
Solar Rad 7 W/m2   2
Leaf Wet 0.0 mins
BatVolt 12.8 V

Today & Yesterday

Kelseyville-South

9/26/20 7:15 AM (-07:00)
Updated Every 15 Minutes
Daily Max Temp 56.8 °F   5.6
Max Temp Time 0107
Daily Min Temp 50.6 °F   4.7
Min Temp Time 0641
Daily Max Wind 5.1 mph   2.0
Max Wind Time 0429
Max Wind Dir ESE | 106 °
Daily Rain 0.00 In
Daily ETo 0.000 in   0.000
Daily Leaf Wet Hrs 0.0 hrs
Max Temp Yest 83.9 °F
Min Temp Yest 45.9 °F
Max Wind Yest 13.8 mph
Rain Yest 0.00 In
ETo Yest 0.16 In
Leaf Wet Hrs Yest 0.0 Hours

Last 48 Hours

Kelseyville-South

Hourly Data | America/Los_Angeles
as of 9/26/20 7:25 AM PDT
Date & Time Temp (°F) RH (%) Dew Pt (°F) Wet Bulb (°F) Wind Dir (°) Wind Spd (mph) Wind Gust (mph) Wind Gst Dir (°) Solar Rad (W/m2) Leaf Wet (mins) Latest Rain (In) Daily Rain (In) Daily Min Temp (°F) Daily Max Temp (°F) Daily ETo (in) Daily Leaf Wet Hrs (hrs)
9/26/20 - 0700 51.0 88 47.8 50.0 ESE | 113 0.2 2.7 E | 101 0 0.0 0.00 0.00 50.6 56.8 0.000 0.0
9/26/20 - 0600 51.9 85 47.6 50.3 SSW | 192 0.1 1.7 S | 183 0 0.0 0.00 0.00 50.7 56.8 0.000 0.0
9/26/20 - 0500 54.2 80 48.2 51.6 SE | 134 0.3 5.1 ESE | 106 0 0.0 0.00 0.00 53.2 56.8 0.000 0.0
9/26/20 - 0400 54.9 77 47.8 51.6 SE | 126 1.0 4.1 ESE | 118 0 0.0 0.00 0.00 53.6 56.8 0.000 0.0
9/26/20 - 0300 55.3 74 47.3 51.6 SSE | 158 0.6 3.4 ESE | 121 0 0.0 0.00 0.00 54.3 56.8 0.000 0.0
9/26/20 - 0200 56.0 71 46.9 51.6 SSE | 152 0.2 3.8 WNW | 290 0 0.0 0.00 0.00 55.1 56.8 0.000 0.0
9/26/20 - 0100 57.1 69 47.1 52.2 SE | 124 0.8 3.8 ESE | 113 0 0.0 0.00 0.00 45.9 83.9 0.160 0.0
9/26/20 - 0000 58.3 67 47.4 52.9 SE | 132 0.4 3.1 ESE | 117 0 0.0 0.00 0.00 45.9 83.9 0.160 0.0
9/25/20 - 2300 59.6 62 46.7 53.0 S | 178 0.5 3.8 SE | 135 0 0.0 0.00 0.00 45.9 83.9 0.160 0.0
9/25/20 - 2200 60.8 58 45.8 52.9 SE | 135 0.2 2.7 SE | 141 0 0.0 0.00 0.00 45.9 83.9 0.160 0.0
9/25/20 - 2100 64.1 48 43.9 53.1 ESE | 115 0.3 2.7 SE | 133 0 0.0 0.00 0.00 45.9 83.9 0.160 0.0
9/25/20 - 2000 68.7 37 41.5 53.6 SSW | 202 0.7 5.1 W | 280 1 0.0 0.00 0.00 45.9 83.9 0.160 0.0
9/25/20 - 1900 75.4 27 38.9 54.5 W | 281 1.6 6.8 NW | 310 79 0.0 0.00 0.00 45.9 83.9 0.160 0.0
9/25/20 - 1800 78.5 22 36.1 54.4 NW | 318 1.1 9.8 NW | 312 273 0.0 0.00 0.00 45.9 83.9 0.159 0.0
9/25/20 - 1700 82.1 16 31.0 53.8 WNW | 296 4.9 13.8 WNW | 290 472 0.0 0.00 0.00 45.9 83.9 0.153 0.0
9/25/20 - 1600 83.2 15 30.3 53.9 WSW | 255 7.5 13.8 WSW | 245 640 0.0 0.00 0.00 45.9 83.9 0.138 0.0
9/25/20 - 1500 82.8 14 29.4 53.6 WSW | 241 6.0 13.5 W | 266 761 0.0 0.00 0.00 45.9 83.9 0.115 0.0
9/25/20 - 1400 79.7 22 37.3 55.1 E | 80 1.7 8.4 WSW | 250 819 0.0 0.00 0.00 45.9 82.2 0.090 0.0
9/25/20 - 1300 75.8 33 44.3 56.9 ENE | 60 1.3 10.5 ENE | 57 823 0.0 0.00 0.00 45.9 78.2 0.068 0.0
9/25/20 - 1200 71.8 41 46.4 56.9 ENE | 57 1.1 8.1 NE | 56 752 0.0 0.00 0.00 45.9 74.0 0.046 0.0
9/25/20 - 1100 68.6 50 49.1 57.3 ENE | 72 1.0 5.8 NE | 55 619 0.0 0.00 0.00 45.9 70.0 0.027 0.0
9/25/20 - 1000 65.8 55 49.4 56.6 NE | 43 0.1 2.7 ENE | 64 437 0.0 0.00 0.00 45.9 67.1 0.013 0.0
9/25/20 - 0900 58.2 73 49.5 53.9 SE | 124 0.1 2.4 SE | 126 235 0.0 0.00 0.00 45.9 64.7 0.004 0.0
9/25/20 - 0800 47.8 89 44.9 46.8 N | 0 0.0 0.0 S | 186 45 0.0 0.00 0.00 45.9 51.8 0.000 0.0
9/25/20 - 0700 46.4 90 43.5 45.4 SE | 129 0.2 3.1 ESE | 118 1 0.0 0.00 0.00 45.9 51.3 0.000 0.0
9/25/20 - 0600 46.6 87 42.9 45.2 NW | 318 0.1 2.4 NW | 310 0 0.0 0.00 0.00 45.9 51.3 0.000 0.0
9/25/20 - 0500 47.5 86 43.6 46.0 ESE | 113 0.0 2.1 ESE | 111 0 0.0 0.00 0.00 46.7 51.3 0.000 0.0
9/25/20 - 0400 48.2 84 43.8 46.5 SE | 138 0.0 2.1 SE | 139 0 0.0 0.00 0.00 47.3 51.3 0.000 0.0
9/25/20 - 0300 49.9 82 44.7 47.7 SE | 132 0.0 1.7 ESE | 113 0 0.0 0.00 0.00 49.3 51.3 0.000 0.0
9/25/20 - 0200 50.6 81 44.9 48.2 SE | 129 0.1 2.1 SE | 136 0 0.0 0.00 0.00 50.2 51.3 0.000 0.0
9/25/20 - 0100 51.1 79 44.8 48.4 SE | 142 0.0 1.7 SE | 139 0 0.0 0.00 0.00 50.5 79.9 0.166 0.0
9/25/20 - 0000 52.9 75 45.3 49.4 SE | 131 0.5 3.1 SE | 132 0 0.0 0.00 0.00 51.9 79.9 0.166 0.0
9/24/20 - 2300 55.0 71 45.9 50.7 SE | 135 1.1 3.1 SE | 136 0 0.0 0.00 0.00 52.9 79.9 0.166 0.0
9/24/20 - 2200 56.2 69 46.2 51.4 SE | 139 0.1 2.7 SE | 142 0 0.0 0.00 0.00 52.9 79.9 0.166 0.0
9/24/20 - 2100 58.7 64 46.5 52.5 WNW | 303 0.1 2.7 ENE | 62 0 0.0 0.00 0.00 52.9 79.9 0.166 0.0
9/24/20 - 2000 65.7 48 45.6 54.5 WNW | 289 1.1 6.1 WNW | 282 1 0.0 0.00 0.00 52.9 79.9 0.166 0.0
9/24/20 - 1900 71.5 39 45.1 56.0 NW | 304 1.6 10.1 W | 275 84 0.0 0.00 0.00 52.9 79.9 0.166 0.0
9/24/20 - 1800 75.4 35 45.8 57.5 NW | 306 2.5 11.5 W | 265 290 0.0 0.00 0.00 52.9 79.9 0.166 0.0
9/24/20 - 1700 77.8 35 47.7 59.0 W | 270 8.8 16.8 W | 280 484 0.0 0.00 0.00 52.9 79.9 0.158 0.0
9/24/20 - 1600 79.1 32 47.0 58.9 W | 260 7.1 13.8 WSW | 256 650 0.0 0.00 0.00 52.9 79.9 0.141 0.0
9/24/20 - 1500 78.5 35 48.5 59.5 W | 262 7.1 15.8 W | 259 768 0.0 0.00 0.00 52.9 79.2 0.121 0.0
9/24/20 - 1400 78.0 39 50.8 60.6 W | 263 6.6 15.5 W | 273 823 0.0 0.00 0.00 52.9 78.9 0.097 0.0
9/24/20 - 1300 77.3 40 51.0 60.6 WNW | 294 4.0 14.2 WNW | 288 823 0.0 0.00 0.00 52.9 78.1 0.073 0.0
9/24/20 - 1200 75.0 49 54.3 62.0 NW | 309 2.5 12.5 WNW | 293 751 0.0 0.00 0.00 52.9 77.2 0.050 0.0
9/24/20 - 1100 73.0 60 58.3 64.1 WNW | 301 1.9 12.1 WNW | 287 615 0.0 0.00 0.00 52.9 74.4 0.030 0.0
9/24/20 - 1000 69.4 68 58.6 63.5 ENE | 71 0.3 6.4 ENE | 64 440 0.0 0.00 0.00 52.9 71.3 0.014 0.0
9/24/20 - 0900 64.1 81 58.0 61.6 NW | 311 0.0 1.1 NNW | 327 247 0.0 0.00 0.00 52.9 68.6 0.004 0.0
9/24/20 - 0800 55.7 95 54.4 56.2 SW | 220 0.1 2.7 SW | 223 53 0.0 0.00 0.00 52.9 59.8 0.000 0.0
9/24/20 - 0700 53.4 94 51.8 53.5 SSW | 211 0.0 1.1 SSW | 206 1 0.0 0.00 0.00 52.9 59.8 0.000 0.0
Max 83.2 95 58.6 64.1 - 8.8 16.8 - 823 0.0 0.00 0.00 55.1 83.9 0.166 0.0
Avg 63.6 59 46.0 53.8 - 1.6 6.2 - 245 0.0 0.00 - - - - -
Min 46.4 14 29.4 45.2 - 0.0 0.0 - 0 0.0 0.00 0.00 45.9 51.3 0.000 0.0
Total - - - - - - - - - - 0.00 - - - - -

Last 30 Days

Kelseyville-South

Daily Data | America/Los_Angeles
as of 9/26/20 7:25 AM PDT
Date Daily Max Temp (°F) Max Temp Time Daily Min Temp (°F) Min Temp Time Daily Rain (In) Monthly Rain (In) Seasonal Rainfall (In) Wind Spd (mph) Daily Max Wind (mph) Max Wind Time Max Wind Dir (°) Daily ETo (in) 7 Day ETo (in) Daily Solar Rad (Cal/cm2) Dew Pt (°F) Max RH (%) Min RH (%) Daily Leaf Wet Hrs (hrs) Hrs 70-85F (hrs) Hrs > 95F (hrs) Powdery Mildew Stress (pts) GDDs (DL) GDDs (Mx/Mn) Seas GDDs (DL) Seasonal GDDs (Mx/Mn) Hrs <= 32F (hrs) Hrs <= 28F (hrs) Chilling <=45F (hrs) Chill Hrs 32-45F (hrs) Utah Chilling (Units) Degree Hrs (hrs) Bat Volt Min Day (V)
9/25/20 83.9 1449 45.9 0542 0.00 0.00 0.02 1.2 13.8 1536 WSW | 245 0.160 1.16 512 42.6 91 12 0.0 8.20 0.00 100 14.2 14.9 3,144 3,042 0.0 0.0 0.0 0.0 0.0 117.6 12.7
9/24/20 79.9 1545 50.5 0045 0.00 0.00 0.02 1.9 16.8 1630 W | 280 0.166 1.17 518 50.7 96 30 0.0 9.14 0.00 80 14.6 15.2 3,129 3,027 0.0 0.0 0.0 0.0 1.0 105.6 12.7
9/23/20 84.6 1432 45.4 0650 0.00 0.00 0.02 2.6 16.8 1730 WSW | 256 0.187 1.20 526 43.9 92 23 0.0 9.91 0.00 60 16.3 15.0 3,115 3,012 0.0 0.0 0.0 0.0 0.0 148.1 12.7
9/22/20 84.9 1530 44.7 0651 0.00 0.00 0.02 2.5 17.2 1815 WNW | 284 0.193 1.18 525 36.6 88 7 0.0 9.46 0.00 40 15.1 14.8 3,099 2,997 0.0 0.0 0.5 0.5 0.5 141.5 12.7
9/21/20 87.8 1505 45.7 0706 0.00 0.00 0.02 1.6 14.8 1707 W | 260 0.164 1.18 489 43.4 85 11 0.0 3.72 0.00 20 15.8 16.8 3,083 2,982 0.0 0.0 0.0 0.0 0.0 150.6 12.7
9/20/20 88.7 1632 48.4 0619 0.00 0.00 0.02 0.9 11.1 1356 W | 266 0.144 1.20 452 46.2 92 17 0.0 3.02 0.00 30 16.6 18.6 3,068 2,966 0.0 0.0 0.0 0.0 0.0 169.3 12.7
9/19/20 83.2 1700 47.0 0701 0.00 0.00 0.02 0.5 9.8 1813 W | 275 0.144 1.23 498 49.4 95 26 2.7 8.47 0.00 40 14.5 15.1 3,051 2,947 0.0 0.0 0.0 0.0 0.0 122.2 12.7
9/18/20 77.5 1508 52.7 0132 0.00 0.00 0.02 3.0 15.8 1156 W | 272 0.175 1.22 530 51.9 96 36 0.0 7.92 0.00 20 13.6 15.1 3,036 2,932 0.0 0.0 0.0 0.0 0.0 81.0 12.7
9/17/20 86.0 1341 51.3 0656 0.00 0.00 0.02 2.5 15.8 1430 WSW | 256 0.191 1.16 534 50.8 93 17 0.0 3.78 0.00 0 17.5 18.7 3,023 2,917 0.0 0.0 0.0 0.0 0.0 160.6 12.7
9/16/20 88.8 1532 42.2 0639 0.00 0.00 0.02 1.1 12.8 1538 W | 278 0.170 1.02 544 42.7 88 8 0.0 3.65 0.00 0 17.1 15.5 3,005 2,898 0.0 0.0 3.1 3.1 0.0 177.1 12.7
9/15/20 89.8 1538 40.1 0636 0.00 0.00 0.02 1.6 12.5 1552 SW | 231 0.190 0.88 565 33.4 75 4 0.0 2.69 0.00 0 16.7 15.0 2,988 2,883 0.0 0.0 4.4 4.4 0.5 182.2 12.7
9/14/20 88.0 1504 44.8 0706 0.00 0.00 0.02 1.7 13.8 1523 WSW | 238 0.187 0.78 539 33.9 86 3 0.0 3.48 0.00 0 15.4 16.4 2,971 2,868 0.0 0.0 0.1 0.1 1.0 166.2 12.7
9/13/20 90.0 1437 46.9 0701 0.00 0.00 0.02 1.4 14.2 1634 WSW | 254 0.168 0.80 486 41.5 79 11 0.0 3.08 0.00 0 17.4 18.5 2,956 2,851 0.0 0.0 0.0 0.0 0.0 184.5 12.7
9/12/20 91.6 1723 44.1 0706 0.00 0.00 0.02 0.3 7.4 1714 W | 270 0.140 0.81 495 38.9 81 6 0.0 2.96 0.00 10 16.6 17.8 2,939 2,833 0.0 0.0 2.1 2.1 0.0 175.9 12.7
9/11/20 84.4 1615 44.3 0701 0.00 0.00 0.02 0.3 6.8 1704 W | 264 0.112 0.85 379 40.6 85 13 0.0 7.80 0.00 20 12.9 14.4 2,922 2,815 0.0 0.0 1.5 1.5 1.0 117.9 12.7
9/10/20 76.6 1609 49.0 0552 0.00 0.00 0.02 0.2 4.4 1522 ESE | 119 0.050 0.96 148 43.9 76 23 0.0 5.75 0.00 0 9.8 12.8 2,909 2,801 0.0 0.0 0.0 0.0 0.5 55.4 12.7
9/9/20 71.4 1356 49.0 0518 0.00 0.00 0.02 0.1 3.4 1110 ENE | 62 0.029 1.12 86 42.0 75 24 0.0 2.52 0.00 10 9.1 10.2 2,899 2,788 0.0 0.0 0.0 0.0 0.5 24.7 12.7
9/8/20 85.5 1359 52.8 0026 0.00 0.00 0.02 1.1 12.1 0932 ESE | 103 0.092 1.28 208 34.9 62 4 0.3 9.41 0.00 20 19.2 19.2 2,890 2,778 0.0 0.0 0.0 0.0 0.5 154.5 12.7
9/7/20 107.3 1429 59.8 0633 0.00 0.00 0.02 1.4 20.2 1537 WNW | 296 0.206 1.34 560 41.2 66 6 0.0 3.75 7.01 0 30.9 33.5 2,871 2,759 0.0 0.0 0.0 0.0 -21.0 399.6 12.7
9/6/20 107.7 1610 59.4 0621 0.00 0.00 0.02 0.8 12.5 1747 W | 277 0.184 1.29 540 44.9 74 7 0.0 3.94 6.86 0 31.2 33.6 2,840 2,725 0.0 0.0 0.0 0.0 -17.5 407.5 12.7
9/5/20 103.7 1702 50.6 0641 0.00 0.00 0.02 0.4 8.4 1504 NE | 47 0.175 1.30 581 42.8 80 5 0.0 3.26 5.68 0 25.9 27.2 2,809 2,691 0.0 0.0 0.0 0.0 -17.0 339.9 12.7
9/4/20 95.7 1627 51.0 0634 0.00 0.00 0.02 2.0 15.2 1327 WSW | 246 0.229 1.30 608 40.3 77 9 0.0 2.81 1.18 0 23.1 23.3 2,783 2,664 0.0 0.0 0.0 0.0 0.0 278.8 12.7
9/3/20 94.7 1457 52.8 0630 0.00 0.00 0.02 1.9 14.8 1338 W | 280 0.207 1.24 556 47.9 84 9 0.0 2.88 0.00 0 22.8 23.8 2,760 2,641 0.0 0.0 0.0 0.0 -15.5 261.7 12.7
9/2/20 91.9 1408 52.1 0705 0.00 0.00 0.02 1.7 15.5 1443 WSW | 244 0.188 1.24 531 51.3 86 23 0.0 3.44 0.00 0 19.9 22.0 2,737 2,617 0.0 0.0 0.0 0.0 -15.0 199.6 12.7
9/1/20 93.3 1421 55.1 0648 0.00 0.00 0.02 1.0 14.2 1625 WSW | 246 0.146 1.27 419 51.0 84 11 0.0 4.10 0.00 0 21.0 24.2 2,717 2,595 0.0 0.0 0.0 0.0 0.0 201.8 12.7
8/31/20 91.2 1507 55.8 0643 0.00 0.02 0.02 1.1 11.1 1600 SW | 228 0.162 1.33 455 52.0 87 13 0.0 3.43 0.00 0 22.8 23.5 2,696 2,571 0.0 0.0 0.0 0.0 -16.5 235.0 12.7
8/30/20 94.5 1536 55.5 0651 0.00 0.02 0.02 1.3 11.5 1529 W | 268 0.191 1.36 545 53.6 91 16 0.0 3.10 0.00 0 23.5 25.0 2,673 2,548 0.0 0.0 0.0 0.0 -16.0 252.6 12.7
8/29/20 91.5 1401 56.1 0630 0.00 0.02 0.02 1.6 14.5 1535 WSW | 250 0.182 1.36 488 53.6 83 23 0.0 3.36 0.00 0 22.8 23.8 2,650 2,523 0.0 0.0 0.0 0.0 -16.5 229.8 12.7
8/28/20 95.5 1422 55.6 0620 0.00 0.02 0.02 1.5 12.8 1505 W | 272 0.166 1.39 426 51.8 84 11 0.0 3.22 0.18 0 23.5 25.6 2,627 2,499 0.0 0.0 0.0 0.0 -16.0 255.2 12.7
8/27/20 93.0 1606 50.2 0441 0.00 0.02 0.02 1.5 13.8 1242 ENE | 60 0.209 1.45 595 46.6 72 16 0.0 3.48 0.00 0 21.8 21.6 2,604 2,473 0.0 0.0 0.0 0.0 -16.5 251.8 12.7
Max 107.7 - 59.8 - 0.00 0.02 - 3.0 20.2 - - 0.229 - 608 53.6 96 36 2.7 9.91 7.01 100 31.2 33.6 - - 0.0 0.0 4.4 4.4 1.0 407.5 12.7
Avg - - - - - 0.00 - 1.4 - - - - - - 44.8 - - - 4.86 0.70 - 18.7 19.7 - - 0.0 0.0 0.4 0.4 -5.4 - -
Min 71.4 - 40.1 - 0.00 0.00 - 0.1 3.4 - - 0.029 - 86 33.4 62 3 0.0 2.52 0.00 0 9.1 10.2 - - 0.0 0.0 0.0 0.0 -21.0 24.7 12.7
Total - - - - - - - - - - - - - - - - - - 145.75 20.92 - 561.8 590.8 - - 0.0 0.0 11.6 11.6 -162.0 - -